sensor_id;sensor_type;location;lat;lon;timestamp;P1;durP1;ratioP1;P2;durP2;ratioP2
68074;SDS011;54864;52.002;5.468;2023-05-10T00:00:15;45.28;;;32.80;;
68074;SDS011;54864;52.002;5.468;2023-05-10T00:01:16;47.95;;;35.50;;
68074;SDS011;54864;52.002;5.468;2023-05-10T00:02:18;43.83;;;33.60;;
68074;SDS011;54864;52.002;5.468;2023-05-10T00:03:19;45.60;;;33.97;;
68074;SDS011;54864;52.002;5.468;2023-05-10T00:04:20;42.28;;;33.25;;
68074;SDS011;54864;52.002;5.468;2023-05-10T00:05:21;45.20;;;32.88;;
68074;SDS011;54864;52.002;5.468;2023-05-10T00:06:23;42.03;;;33.05;;
68074;SDS011;54864;52.002;5.468;2023-05-10T00:07:23;42.67;;;32.40;;
68074;SDS011;54864;52.002;5.468;2023-05-10T00:08:31;44.40;;;34.10;;
68074;SDS011;54864;52.002;5.468;2023-05-10T00:09:32;43.50;;;33.92;;
68074;SDS011;54864;52.002;5.468;2023-05-10T00:10:34;45.20;;;34.70;;
68074;SDS011;54864;52.002;5.468;2023-05-10T00:11:34;45.07;;;33.87;;
68074;SDS011;54864;52.002;5.468;2023-05-10T00:12:36;48.20;;;35.75;;
68074;SDS011;54864;52.002;5.468;2023-05-10T00:13:44;45.50;;;34.97;;
68074;SDS011;54864;52.002;5.468;2023-05-10T00:14:48;48.13;;;35.05;;
68074;SDS011;54864;52.002;5.468;2023-05-10T00:15:49;45.78;;;35.45;;
68074;SDS011;54864;52.002;5.468;2023-05-10T00:16:51;46.80;;;33.97;;
68074;SDS011;54864;52.002;5.468;2023-05-10T00:17:55;46.37;;;34.80;;
68074;SDS011;54864;52.002;5.468;2023-05-10T00:18:57;48.95;;;35.63;;
68074;SDS011;54864;52.002;5.468;2023-05-10T00:19:57;45.53;;;34.63;;
68074;SDS011;54864;52.002;5.468;2023-05-10T00:20:59;50.70;;;35.53;;
68074;SDS011;54864;52.002;5.468;2023-05-10T00:22:00;47.55;;;35.85;;
68074;SDS011;54864;52.002;5.468;2023-05-10T00:23:01;47.70;;;35.47;;
68074;SDS011;54864;52.002;5.468;2023-05-10T00:24:02;47.00;;;34.30;;
68074;SDS011;54864;52.002;5.468;2023-05-10T00:25:07;46.58;;;34.50;;
68074;SDS011;54864;52.002;5.468;2023-05-10T00:26:09;49.92;;;35.13;;
68074;SDS011;54864;52.002;5.468;2023-05-10T00:27:13;47.53;;;35.53;;
68074;SDS011;54864;52.002;5.468;2023-05-10T00:28:13;45.53;;;34.92;;
68074;SDS011;54864;52.002;5.468;2023-05-10T00:29:16;49.40;;;36.83;;
68074;SDS011;54864;52.002;5.468;2023-05-10T00:30:17;47.25;;;34.95;;
68074;SDS011;54864;52.002;5.468;2023-05-10T00:31:20;45.90;;;34.13;;
68074;SDS011;54864;52.002;5.468;2023-05-10T00:32:20;44.20;;;33.95;;
68074;SDS011;54864;52.002;5.468;2023-05-10T00:33:22;45.28;;;34.50;;
68074;SDS011;54864;52.002;5.468;2023-05-10T00:34:23;48.38;;;35.13;;
68074;SDS011;54864;52.002;5.468;2023-05-10T00:35:24;49.25;;;35.45;;
68074;SDS011;54864;52.002;5.468;2023-05-10T00:36:29;47.92;;;35.72;;
68074;SDS011;54864;52.002;5.468;2023-05-10T00:37:34;52.83;;;36.60;;
68074;SDS011;54864;52.002;5.468;2023-05-10T00:38:34;51.03;;;35.10;;
68074;SDS011;54864;52.002;5.468;2023-05-10T00:39:36;51.05;;;35.53;;
68074;SDS011;54864;52.002;5.468;2023-05-10T00:40:45;46.28;;;33.83;;
68074;SDS011;54864;52.002;5.468;2023-05-10T00:41:49;50.05;;;35.63;;
68074;SDS011;54864;52.002;5.468;2023-05-10T00:42:50;47.50;;;33.15;;
68074;SDS011;54864;52.002;5.468;2023-05-10T00:43:51;49.30;;;34.22;;
68074;SDS011;54864;52.002;5.468;2023-05-10T00:44:53;49.72;;;35.58;;
68074;SDS011;54864;52.002;5.468;2023-05-10T00:45:55;48.53;;;34.15;;
68074;SDS011;54864;52.002;5.468;2023-05-10T00:46:56;51.05;;;34.95;;
68074;SDS011;54864;52.002;5.468;2023-05-10T00:47:59;49.63;;;33.90;;
68074;SDS011;54864;52.002;5.468;2023-05-10T00:49:01;49.60;;;34.72;;
68074;SDS011;54864;52.002;5.468;2023-05-10T00:50:06;51.40;;;35.17;;
68074;SDS011;54864;52.002;5.468;2023-05-10T00:51:08;45.85;;;33.33;;
68074;SDS011;54864;52.002;5.468;2023-05-10T00:52:10;48.97;;;34.63;;
68074;SDS011;54864;52.002;5.468;2023-05-10T00:53:13;50.65;;;33.83;;
68074;SDS011;54864;52.002;5.468;2023-05-10T00:54:17;51.10;;;34.53;;
68074;SDS011;54864;52.002;5.468;2023-05-10T00:55:18;51.30;;;33.73;;
68074;SDS011;54864;52.002;5.468;2023-05-10T00:56:20;45.23;;;31.83;;
68074;SDS011;54864;52.002;5.468;2023-05-10T00:57:24;46.15;;;33.08;;
68074;SDS011;54864;52.002;5.468;2023-05-10T00:58:27;46.85;;;33.20;;
68074;SDS011;54864;52.002;5.468;2023-05-10T00:59:28;48.65;;;33.63;;
68074;SDS011;54864;52.002;5.468;2023-05-10T01:00:35;53.20;;;33.83;;
68074;SDS011;54864;52.002;5.468;2023-05-10T01:01:43;49.22;;;33.13;;
68074;SDS011;54864;52.002;5.468;2023-05-10T01:02:45;48.65;;;32.03;;
68074;SDS011;54864;52.002;5.468;2023-05-10T01:03:48;50.00;;;33.92;;
68074;SDS011;54864;52.002;5.468;2023-05-10T01:04:50;49.88;;;33.15;;
68074;SDS011;54864;52.002;5.468;2023-05-10T01:05:52;51.53;;;34.17;;
68074;SDS011;54864;52.002;5.468;2023-05-10T01:06:53;49.95;;;32.85;;
68074;SDS011;54864;52.002;5.468;2023-05-10T01:07:54;47.80;;;32.97;;
68074;SDS011;54864;52.002;5.468;2023-05-10T01:08:57;48.60;;;32.17;;
68074;SDS011;54864;52.002;5.468;2023-05-10T01:09:58;49.70;;;33.97;;
68074;SDS011;54864;52.002;5.468;2023-05-10T01:11:00;50.13;;;34.03;;
68074;SDS011;54864;52.002;5.468;2023-05-10T01:12:03;48.80;;;33.13;;
68074;SDS011;54864;52.002;5.468;2023-05-10T01:13:06;47.97;;;32.38;;
68074;SDS011;54864;52.002;5.468;2023-05-10T01:14:07;50.03;;;33.08;;
68074;SDS011;54864;52.002;5.468;2023-05-10T01:15:10;47.88;;;31.85;;
68074;SDS011;54864;52.002;5.468;2023-05-10T01:16:13;49.45;;;32.92;;
68074;SDS011;54864;52.002;5.468;2023-05-10T01:17:15;48.40;;;32.30;;
68074;SDS011;54864;52.002;5.468;2023-05-10T01:18:16;48.75;;;32.00;;
68074;SDS011;54864;52.002;5.468;2023-05-10T01:19:23;50.20;;;32.50;;
68074;SDS011;54864;52.002;5.468;2023-05-10T01:20:25;51.53;;;34.13;;
68074;SDS011;54864;52.002;5.468;2023-05-10T01:21:37;48.47;;;31.90;;
68074;SDS011;54864;52.002;5.468;2023-05-10T01:22:50;47.97;;;32.55;;
68074;SDS011;54864;52.002;5.468;2023-05-10T01:26:14;52.58;;;32.58;;
68074;SDS011;54864;52.002;5.468;2023-05-10T01:27:35;56.80;;;36.08;;
68074;SDS011;54864;52.002;5.468;2023-05-10T01:32:22;59.72;;;37.28;;
68074;SDS011;54864;52.002;5.468;2023-05-10T01:33:30;60.78;;;37.50;;
68074;SDS011;54864;52.002;5.468;2023-05-10T01:34:39;58.85;;;37.40;;
68074;SDS011;54864;52.002;5.468;2023-05-10T01:35:50;57.88;;;37.00;;
68074;SDS011;54864;52.002;5.468;2023-05-10T01:36:58;57.53;;;36.38;;
68074;SDS011;54864;52.002;5.468;2023-05-10T01:38:09;58.38;;;37.38;;
68074;SDS011;54864;52.002;5.468;2023-05-10T01:39:20;57.92;;;36.83;;
68074;SDS011;54864;52.002;5.468;2023-05-10T01:40:29;59.70;;;37.35;;
68074;SDS011;54864;52.002;5.468;2023-05-10T01:41:38;59.22;;;36.22;;
68074;SDS011;54864;52.002;5.468;2023-05-10T01:42:50;63.42;;;39.33;;
68074;SDS011;54864;52.002;5.468;2023-05-10T01:43:55;67.65;;;41.03;;
68074;SDS011;54864;52.002;5.468;2023-05-10T01:45:06;72.17;;;41.37;;
68074;SDS011;54864;52.002;5.468;2023-05-10T01:46:17;65.07;;;39.75;;
68074;SDS011;54864;52.002;5.468;2023-05-10T01:47:29;65.22;;;40.05;;
68074;SDS011;54864;52.002;5.468;2023-05-10T01:48:35;59.63;;;38.38;;
68074;SDS011;54864;52.002;5.468;2023-05-10T01:49:39;66.65;;;39.85;;
68074;SDS011;54864;52.002;5.468;2023-05-10T01:50:43;68.45;;;41.90;;
68074;SDS011;54864;52.002;5.468;2023-05-10T01:51:49;61.10;;;38.50;;
68074;SDS011;54864;52.002;5.468;2023-05-10T01:52:58;65.05;;;41.63;;
68074;SDS011;54864;52.002;5.468;2023-05-10T01:54:02;68.75;;;40.80;;
68074;SDS011;54864;52.002;5.468;2023-05-10T01:55:05;73.93;;;42.90;;
68074;SDS011;54864;52.002;5.468;2023-05-10T01:56:10;70.53;;;41.53;;
68074;SDS011;54864;52.002;5.468;2023-05-10T01:57:12;70.32;;;42.95;;
68074;SDS011;54864;52.002;5.468;2023-05-10T01:58:18;65.22;;;40.65;;
68074;SDS011;54864;52.002;5.468;2023-05-10T01:59:22;70.47;;;41.15;;
68074;SDS011;54864;52.002;5.468;2023-05-10T02:00:33;65.38;;;40.30;;
68074;SDS011;54864;52.002;5.468;2023-05-10T02:01:38;66.25;;;41.92;;
68074;SDS011;54864;52.002;5.468;2023-05-10T02:02:44;72.25;;;43.05;;
68074;SDS011;54864;52.002;5.468;2023-05-10T02:03:46;68.45;;;41.38;;
68074;SDS011;54864;52.002;5.468;2023-05-10T02:04:50;67.32;;;43.28;;
68074;SDS011;54864;52.002;5.468;2023-05-10T02:05:53;74.07;;;44.17;;
68074;SDS011;54864;52.002;5.468;2023-05-10T02:07:00;66.50;;;41.00;;
68074;SDS011;54864;52.002;5.468;2023-05-10T02:08:05;65.00;;;42.30;;
68074;SDS011;54864;52.002;5.468;2023-05-10T02:09:10;71.68;;;44.95;;
68074;SDS011;54864;52.002;5.468;2023-05-10T02:10:13;75.38;;;45.47;;
68074;SDS011;54864;52.002;5.468;2023-05-10T02:11:16;74.90;;;44.72;;
68074;SDS011;54864;52.002;5.468;2023-05-10T02:12:18;68.25;;;43.78;;
68074;SDS011;54864;52.002;5.468;2023-05-10T02:13:22;70.78;;;44.25;;
68074;SDS011;54864;52.002;5.468;2023-05-10T02:14:24;70.70;;;43.63;;
68074;SDS011;54864;52.002;5.468;2023-05-10T02:15:27;73.55;;;45.28;;
68074;SDS011;54864;52.002;5.468;2023-05-10T02:16:29;72.43;;;45.25;;
68074;SDS011;54864;52.002;5.468;2023-05-10T02:17:33;72.85;;;45.03;;
68074;SDS011;54864;52.002;5.468;2023-05-10T02:18:37;68.97;;;45.10;;
68074;SDS011;54864;52.002;5.468;2023-05-10T02:19:41;67.80;;;43.88;;
68074;SDS011;54864;52.002;5.468;2023-05-10T02:20:43;69.22;;;43.03;;
68074;SDS011;54864;52.002;5.468;2023-05-10T02:21:47;74.40;;;46.00;;
68074;SDS011;54864;52.002;5.468;2023-05-10T02:22:49;75.13;;;47.00;;
68074;SDS011;54864;52.002;5.468;2023-05-10T02:23:53;72.93;;;45.05;;
68074;SDS011;54864;52.002;5.468;2023-05-10T02:24:57;70.10;;;44.72;;
68074;SDS011;54864;52.002;5.468;2023-05-10T02:26:03;71.70;;;43.90;;
68074;SDS011;54864;52.002;5.468;2023-05-10T02:27:06;68.75;;;43.45;;
68074;SDS011;54864;52.002;5.468;2023-05-10T02:28:10;77.43;;;45.55;;
68074;SDS011;54864;52.002;5.468;2023-05-10T02:29:16;71.28;;;44.50;;
68074;SDS011;54864;52.002;5.468;2023-05-10T02:30:17;71.07;;;43.53;;
68074;SDS011;54864;52.002;5.468;2023-05-10T02:31:20;72.40;;;44.67;;
68074;SDS011;54864;52.002;5.468;2023-05-10T02:32:21;67.63;;;43.45;;
68074;SDS011;54864;52.002;5.468;2023-05-10T02:33:28;70.45;;;43.70;;
68074;SDS011;54864;52.002;5.468;2023-05-10T02:34:32;68.30;;;42.55;;
68074;SDS011;54864;52.002;5.468;2023-05-10T02:35:34;68.60;;;44.88;;
68074;SDS011;54864;52.002;5.468;2023-05-10T02:36:36;70.15;;;44.42;;
68074;SDS011;54864;52.002;5.468;2023-05-10T02:37:42;66.35;;;41.70;;
68074;SDS011;54864;52.002;5.468;2023-05-10T02:38:45;72.80;;;43.05;;
68074;SDS011;54864;52.002;5.468;2023-05-10T02:39:50;69.63;;;44.08;;
68074;SDS011;54864;52.002;5.468;2023-05-10T02:40:52;71.68;;;43.60;;
68074;SDS011;54864;52.002;5.468;2023-05-10T02:41:54;69.70;;;45.58;;
68074;SDS011;54864;52.002;5.468;2023-05-10T02:42:57;71.38;;;43.63;;
68074;SDS011;54864;52.002;5.468;2023-05-10T02:44:02;73.43;;;44.28;;
68074;SDS011;54864;52.002;5.468;2023-05-10T02:45:11;72.70;;;44.67;;
68074;SDS011;54864;52.002;5.468;2023-05-10T02:46:13;68.30;;;43.53;;
68074;SDS011;54864;52.002;5.468;2023-05-10T02:47:14;71.10;;;43.63;;
68074;SDS011;54864;52.002;5.468;2023-05-10T02:48:16;73.43;;;43.95;;
68074;SDS011;54864;52.002;5.468;2023-05-10T02:49:17;71.13;;;44.20;;
68074;SDS011;54864;52.002;5.468;2023-05-10T02:50:21;72.57;;;44.55;;
68074;SDS011;54864;52.002;5.468;2023-05-10T02:51:23;70.70;;;45.08;;
68074;SDS011;54864;52.002;5.468;2023-05-10T02:52:30;72.25;;;43.95;;
68074;SDS011;54864;52.002;5.468;2023-05-10T02:53:41;72.00;;;45.15;;
68074;SDS011;54864;52.002;5.468;2023-05-10T02:54:45;70.88;;;45.17;;
68074;SDS011;54864;52.002;5.468;2023-05-10T02:55:50;76.40;;;47.17;;
68074;SDS011;54864;52.002;5.468;2023-05-10T02:56:54;72.75;;;44.97;;
68074;SDS011;54864;52.002;5.468;2023-05-10T02:57:58;70.57;;;44.28;;
68074;SDS011;54864;52.002;5.468;2023-05-10T02:59:01;73.05;;;44.78;;
68074;SDS011;54864;52.002;5.468;2023-05-10T03:00:09;73.95;;;45.70;;
68074;SDS011;54864;52.002;5.468;2023-05-10T03:01:14;73.43;;;46.03;;
68074;SDS011;54864;52.002;5.468;2023-05-10T03:02:15;71.97;;;45.70;;
68074;SDS011;54864;52.002;5.468;2023-05-10T03:03:17;72.75;;;44.80;;
68074;SDS011;54864;52.002;5.468;2023-05-10T03:04:18;72.78;;;45.92;;
68074;SDS011;54864;52.002;5.468;2023-05-10T03:05:21;70.65;;;46.35;;
68074;SDS011;54864;52.002;5.468;2023-05-10T03:06:22;73.57;;;45.20;;
68074;SDS011;54864;52.002;5.468;2023-05-10T03:07:24;77.93;;;47.92;;
68074;SDS011;54864;52.002;5.468;2023-05-10T03:08:24;74.55;;;46.25;;
68074;SDS011;54864;52.002;5.468;2023-05-10T03:09:29;76.95;;;47.65;;
68074;SDS011;54864;52.002;5.468;2023-05-10T03:10:31;72.68;;;45.50;;
68074;SDS011;54864;52.002;5.468;2023-05-10T03:11:43;71.15;;;44.95;;
68074;SDS011;54864;52.002;5.468;2023-05-10T03:12:57;73.00;;;46.03;;
68074;SDS011;54864;52.002;5.468;2023-05-10T03:14:08;74.15;;;47.17;;
68074;SDS011;54864;52.002;5.468;2023-05-10T03:15:17;76.15;;;46.60;;
68074;SDS011;54864;52.002;5.468;2023-05-10T03:16:27;78.18;;;46.70;;
68074;SDS011;54864;52.002;5.468;2023-05-10T03:17:55;74.07;;;45.53;;
68074;SDS011;54864;52.002;5.468;2023-05-10T03:19:03;75.93;;;46.25;;
68074;SDS011;54864;52.002;5.468;2023-05-10T03:20:12;80.43;;;46.55;;
68074;SDS011;54864;52.002;5.468;2023-05-10T03:21:24;73.75;;;44.35;;
68074;SDS011;54864;52.002;5.468;2023-05-10T03:22:30;73.28;;;46.38;;
68074;SDS011;54864;52.002;5.468;2023-05-10T03:23:34;71.55;;;45.03;;
68074;SDS011;54864;52.002;5.468;2023-05-10T03:24:36;80.18;;;47.33;;
68074;SDS011;54864;52.002;5.468;2023-05-10T03:25:43;74.80;;;44.47;;
68074;SDS011;54864;52.002;5.468;2023-05-10T03:26:49;75.30;;;45.42;;
68074;SDS011;54864;52.002;5.468;2023-05-10T03:27:52;74.53;;;44.58;;
68074;SDS011;54864;52.002;5.468;2023-05-10T03:28:52;72.95;;;45.15;;
68074;SDS011;54864;52.002;5.468;2023-05-10T03:29:55;75.90;;;45.97;;
68074;SDS011;54864;52.002;5.468;2023-05-10T03:30:57;77.20;;;45.63;;
68074;SDS011;54864;52.002;5.468;2023-05-10T03:32:00;75.38;;;45.20;;
68074;SDS011;54864;52.002;5.468;2023-05-10T03:33:06;71.10;;;43.78;;
68074;SDS011;54864;52.002;5.468;2023-05-10T03:34:08;71.80;;;43.90;;
68074;SDS011;54864;52.002;5.468;2023-05-10T03:35:09;70.32;;;43.45;;
68074;SDS011;54864;52.002;5.468;2023-05-10T03:36:11;76.57;;;43.85;;
68074;SDS011;54864;52.002;5.468;2023-05-10T03:37:15;76.22;;;44.78;;
68074;SDS011;54864;52.002;5.468;2023-05-10T03:38:18;70.72;;;42.30;;
68074;SDS011;54864;52.002;5.468;2023-05-10T03:39:19;71.93;;;42.97;;
68074;SDS011;54864;52.002;5.468;2023-05-10T03:40:21;69.47;;;42.10;;
68074;SDS011;54864;52.002;5.468;2023-05-10T03:41:25;73.22;;;41.70;;
68074;SDS011;54864;52.002;5.468;2023-05-10T03:42:26;72.80;;;41.50;;
68074;SDS011;54864;52.002;5.468;2023-05-10T03:43:30;72.30;;;42.63;;
68074;SDS011;54864;52.002;5.468;2023-05-10T03:44:30;68.53;;;42.40;;
68074;SDS011;54864;52.002;5.468;2023-05-10T03:45:34;72.32;;;42.90;;
68074;SDS011;54864;52.002;5.468;2023-05-10T03:46:34;71.40;;;41.47;;
68074;SDS011;54864;52.002;5.468;2023-05-10T03:47:36;72.00;;;41.88;;
68074;SDS011;54864;52.002;5.468;2023-05-10T03:48:42;65.82;;;40.20;;
68074;SDS011;54864;52.002;5.468;2023-05-10T03:49:44;74.28;;;41.47;;
68074;SDS011;54864;52.002;5.468;2023-05-10T03:50:45;68.43;;;40.08;;
68074;SDS011;54864;52.002;5.468;2023-05-10T03:51:46;69.78;;;40.60;;
68074;SDS011;54864;52.002;5.468;2023-05-10T03:52:48;66.28;;;38.55;;
68074;SDS011;54864;52.002;5.468;2023-05-10T03:53:50;69.97;;;39.58;;
68074;SDS011;54864;52.002;5.468;2023-05-10T03:54:51;67.28;;;40.28;;
68074;SDS011;54864;52.002;5.468;2023-05-10T03:55:52;68.07;;;39.47;;
68074;SDS011;54864;52.002;5.468;2023-05-10T03:56:53;66.43;;;38.55;;
68074;SDS011;54864;52.002;5.468;2023-05-10T03:57:55;73.82;;;40.67;;
68074;SDS011;54864;52.002;5.468;2023-05-10T03:58:56;69.75;;;39.97;;
68074;SDS011;54864;52.002;5.468;2023-05-10T03:59:57;66.70;;;38.33;;
68074;SDS011;54864;52.002;5.468;2023-05-10T04:00:58;66.20;;;39.97;;
68074;SDS011;54864;52.002;5.468;2023-05-10T04:01:59;70.47;;;38.75;;
68074;SDS011;54864;52.002;5.468;2023-05-10T04:03:03;68.25;;;38.50;;
68074;SDS011;54864;52.002;5.468;2023-05-10T04:04:05;67.17;;;39.03;;
68074;SDS011;54864;52.002;5.468;2023-05-10T04:05:06;68.70;;;38.37;;
68074;SDS011;54864;52.002;5.468;2023-05-10T04:06:08;65.65;;;37.92;;
68074;SDS011;54864;52.002;5.468;2023-05-10T04:07:11;64.07;;;37.97;;
68074;SDS011;54864;52.002;5.468;2023-05-10T04:08:15;65.28;;;38.15;;
68074;SDS011;54864;52.002;5.468;2023-05-10T04:09:25;66.72;;;38.03;;
68074;SDS011;54864;52.002;5.468;2023-05-10T04:10:27;65.68;;;38.47;;
68074;SDS011;54864;52.002;5.468;2023-05-10T04:11:28;68.88;;;38.97;;
68074;SDS011;54864;52.002;5.468;2023-05-10T04:12:29;70.05;;;39.15;;
68074;SDS011;54864;52.002;5.468;2023-05-10T04:13:30;69.60;;;38.67;;
68074;SDS011;54864;52.002;5.468;2023-05-10T04:14:33;72.85;;;38.65;;
68074;SDS011;54864;52.002;5.468;2023-05-10T04:15:34;67.32;;;38.72;;
68074;SDS011;54864;52.002;5.468;2023-05-10T04:16:36;65.80;;;37.67;;
68074;SDS011;54864;52.002;5.468;2023-05-10T04:17:37;68.63;;;38.63;;
68074;SDS011;54864;52.002;5.468;2023-05-10T04:18:38;66.60;;;37.50;;
68074;SDS011;54864;52.002;5.468;2023-05-10T04:19:40;69.85;;;39.50;;
68074;SDS011;54864;52.002;5.468;2023-05-10T04:20:41;69.55;;;37.75;;
68074;SDS011;54864;52.002;5.468;2023-05-10T04:21:42;71.37;;;38.40;;
68074;SDS011;54864;52.002;5.468;2023-05-10T04:22:43;73.20;;;39.42;;
68074;SDS011;54864;52.002;5.468;2023-05-10T04:23:45;67.95;;;38.17;;
68074;SDS011;54864;52.002;5.468;2023-05-10T04:24:48;70.30;;;39.20;;
68074;SDS011;54864;52.002;5.468;2023-05-10T04:25:50;74.80;;;38.53;;
68074;SDS011;54864;52.002;5.468;2023-05-10T04:26:53;71.47;;;38.75;;
68074;SDS011;54864;52.002;5.468;2023-05-10T04:27:54;73.38;;;38.75;;
68074;SDS011;54864;52.002;5.468;2023-05-10T04:28:56;75.68;;;38.97;;
68074;SDS011;54864;52.002;5.468;2023-05-10T04:29:57;82.30;;;41.10;;
68074;SDS011;54864;52.002;5.468;2023-05-10T04:31:01;76.90;;;40.85;;
68074;SDS011;54864;52.002;5.468;2023-05-10T04:32:03;78.55;;;40.95;;
68074;SDS011;54864;52.002;5.468;2023-05-10T04:33:04;82.22;;;40.47;;
68074;SDS011;54864;52.002;5.468;2023-05-10T04:34:05;78.87;;;40.97;;
68074;SDS011;54864;52.002;5.468;2023-05-10T04:35:07;81.80;;;41.67;;
68074;SDS011;54864;52.002;5.468;2023-05-10T04:36:10;78.85;;;40.72;;
68074;SDS011;54864;52.002;5.468;2023-05-10T04:37:11;78.35;;;41.03;;
68074;SDS011;54864;52.002;5.468;2023-05-10T04:38:12;81.57;;;41.60;;
68074;SDS011;54864;52.002;5.468;2023-05-10T04:39:15;76.28;;;39.22;;
68074;SDS011;54864;52.002;5.468;2023-05-10T04:40:15;85.20;;;42.95;;
68074;SDS011;54864;52.002;5.468;2023-05-10T04:41:19;83.80;;;43.38;;
68074;SDS011;54864;52.002;5.468;2023-05-10T04:42:20;88.93;;;43.72;;
68074;SDS011;54864;52.002;5.468;2023-05-10T04:43:22;78.35;;;42.67;;
68074;SDS011;54864;52.002;5.468;2023-05-10T04:44:24;76.82;;;40.58;;
68074;SDS011;54864;52.002;5.468;2023-05-10T04:45:25;81.20;;;42.38;;
68074;SDS011;54864;52.002;5.468;2023-05-10T04:46:28;86.30;;;44.03;;
68074;SDS011;54864;52.002;5.468;2023-05-10T04:47:30;84.63;;;43.45;;
68074;SDS011;54864;52.002;5.468;2023-05-10T04:48:30;90.43;;;43.90;;
68074;SDS011;54864;52.002;5.468;2023-05-10T04:49:32;79.20;;;43.78;;
68074;SDS011;54864;52.002;5.468;2023-05-10T04:50:32;86.90;;;43.88;;
68074;SDS011;54864;52.002;5.468;2023-05-10T04:51:34;78.55;;;43.63;;
68074;SDS011;54864;52.002;5.468;2023-05-10T04:52:35;82.80;;;43.80;;
68074;SDS011;54864;52.002;5.468;2023-05-10T04:53:37;80.90;;;43.13;;
68074;SDS011;54864;52.002;5.468;2023-05-10T04:54:39;79.03;;;42.13;;
68074;SDS011;54864;52.002;5.468;2023-05-10T04:55:43;78.50;;;42.50;;
68074;SDS011;54864;52.002;5.468;2023-05-10T04:56:47;77.50;;;42.05;;
68074;SDS011;54864;52.002;5.468;2023-05-10T04:57:52;82.53;;;44.40;;
68074;SDS011;54864;52.002;5.468;2023-05-10T04:58:52;78.70;;;42.63;;
68074;SDS011;54864;52.002;5.468;2023-05-10T04:59:54;74.45;;;41.25;;
68074;SDS011;54864;52.002;5.468;2023-05-10T05:00:55;79.07;;;42.75;;
68074;SDS011;54864;52.002;5.468;2023-05-10T05:01:57;81.10;;;42.78;;
68074;SDS011;54864;52.002;5.468;2023-05-10T05:03:01;80.47;;;43.70;;
68074;SDS011;54864;52.002;5.468;2023-05-10T05:04:02;83.75;;;43.75;;
68074;SDS011;54864;52.002;5.468;2023-05-10T05:05:03;84.05;;;44.38;;
68074;SDS011;54864;52.002;5.468;2023-05-10T05:06:06;82.97;;;43.25;;
68074;SDS011;54864;52.002;5.468;2023-05-10T05:07:09;74.13;;;41.08;;
68074;SDS011;54864;52.002;5.468;2023-05-10T05:08:11;75.90;;;42.97;;
68074;SDS011;54864;52.002;5.468;2023-05-10T05:09:12;77.73;;;43.73;;
68074;SDS011;54864;52.002;5.468;2023-05-10T05:10:14;78.13;;;42.75;;
68074;SDS011;54864;52.002;5.468;2023-05-10T05:11:15;72.38;;;41.70;;
68074;SDS011;54864;52.002;5.468;2023-05-10T05:12:20;81.72;;;43.00;;
68074;SDS011;54864;52.002;5.468;2023-05-10T05:13:21;79.40;;;42.13;;
68074;SDS011;54864;52.002;5.468;2023-05-10T05:14:25;75.30;;;42.50;;
68074;SDS011;54864;52.002;5.468;2023-05-10T05:15:27;70.65;;;41.58;;
68074;SDS011;54864;52.002;5.468;2023-05-10T05:16:29;72.10;;;43.57;;
68074;SDS011;54864;52.002;5.468;2023-05-10T05:17:31;74.22;;;41.42;;
68074;SDS011;54864;52.002;5.468;2023-05-10T05:18:32;74.32;;;41.22;;
68074;SDS011;54864;52.002;5.468;2023-05-10T05:19:34;68.90;;;40.45;;
68074;SDS011;54864;52.002;5.468;2023-05-10T05:20:37;76.38;;;42.15;;
68074;SDS011;54864;52.002;5.468;2023-05-10T05:21:43;72.07;;;40.30;;
68074;SDS011;54864;52.002;5.468;2023-05-10T05:22:45;66.45;;;40.47;;
68074;SDS011;54864;52.002;5.468;2023-05-10T05:23:45;76.32;;;41.63;;
68074;SDS011;54864;52.002;5.468;2023-05-10T05:24:50;73.25;;;41.28;;
68074;SDS011;54864;52.002;5.468;2023-05-10T05:25:52;77.20;;;41.55;;
68074;SDS011;54864;52.002;5.468;2023-05-10T05:26:54;71.13;;;40.42;;
68074;SDS011;54864;52.002;5.468;2023-05-10T05:27:55;73.03;;;40.83;;
68074;SDS011;54864;52.002;5.468;2023-05-10T05:28:56;77.38;;;40.60;;
68074;SDS011;54864;52.002;5.468;2023-05-10T05:29:57;75.30;;;41.47;;
68074;SDS011;54864;52.002;5.468;2023-05-10T05:30:59;74.50;;;42.55;;
68074;SDS011;54864;52.002;5.468;2023-05-10T05:32:00;74.17;;;42.57;;
68074;SDS011;54864;52.002;5.468;2023-05-10T05:33:04;72.90;;;42.35;;
68074;SDS011;54864;52.002;5.468;2023-05-10T05:34:08;74.88;;;41.92;;
68074;SDS011;54864;52.002;5.468;2023-05-10T05:35:10;83.35;;;45.10;;
68074;SDS011;54864;52.002;5.468;2023-05-10T05:36:11;82.53;;;45.50;;
68074;SDS011;54864;52.002;5.468;2023-05-10T05:37:13;84.97;;;45.72;;
68074;SDS011;54864;52.002;5.468;2023-05-10T05:38:14;83.03;;;46.10;;
68074;SDS011;54864;52.002;5.468;2023-05-10T05:39:16;77.68;;;44.03;;
68074;SDS011;54864;52.002;5.468;2023-05-10T05:40:17;80.22;;;44.95;;
68074;SDS011;54864;52.002;5.468;2023-05-10T05:41:20;84.45;;;45.97;;
68074;SDS011;54864;52.002;5.468;2023-05-10T05:42:21;82.75;;;46.70;;
68074;SDS011;54864;52.002;5.468;2023-05-10T05:43:23;86.35;;;45.38;;
68074;SDS011;54864;52.002;5.468;2023-05-10T05:44:24;90.97;;;48.15;;
68074;SDS011;54864;52.002;5.468;2023-05-10T05:45:26;83.97;;;47.03;;
68074;SDS011;54864;52.002;5.468;2023-05-10T05:46:27;89.97;;;49.10;;
68074;SDS011;54864;52.002;5.468;2023-05-10T05:47:29;92.28;;;49.08;;
68074;SDS011;54864;52.002;5.468;2023-05-10T05:48:30;87.93;;;49.83;;
68074;SDS011;54864;52.002;5.468;2023-05-10T05:49:32;91.65;;;49.50;;
68074;SDS011;54864;52.002;5.468;2023-05-10T05:50:32;90.90;;;50.50;;
68074;SDS011;54864;52.002;5.468;2023-05-10T05:51:34;90.28;;;51.25;;
68074;SDS011;54864;52.002;5.468;2023-05-10T05:52:35;96.97;;;49.85;;
68074;SDS011;54864;52.002;5.468;2023-05-10T05:53:43;98.07;;;50.25;;
68074;SDS011;54864;52.002;5.468;2023-05-10T05:54:44;102.95;;;51.42;;
68074;SDS011;54864;52.002;5.468;2023-05-10T05:55:50;116.43;;;54.17;;
68074;SDS011;54864;52.002;5.468;2023-05-10T05:56:55;99.75;;;52.15;;
68074;SDS011;54864;52.002;5.468;2023-05-10T05:57:55;100.07;;;53.40;;
68074;SDS011;54864;52.002;5.468;2023-05-10T05:58:57;101.18;;;51.38;;
68074;SDS011;54864;52.002;5.468;2023-05-10T06:00:04;100.10;;;49.93;;
68074;SDS011;54864;52.002;5.468;2023-05-10T06:01:09;91.22;;;51.05;;
68074;SDS011;54864;52.002;5.468;2023-05-10T06:02:13;99.05;;;51.67;;
68074;SDS011;54864;52.002;5.468;2023-05-10T06:03:15;97.45;;;51.13;;
68074;SDS011;54864;52.002;5.468;2023-05-10T06:04:18;100.07;;;52.13;;
68074;SDS011;54864;52.002;5.468;2023-05-10T06:05:23;97.70;;;52.00;;
68074;SDS011;54864;52.002;5.468;2023-05-10T06:06:23;96.47;;;49.70;;
68074;SDS011;54864;52.002;5.468;2023-05-10T06:07:28;98.50;;;50.88;;
68074;SDS011;54864;52.002;5.468;2023-05-10T06:08:29;101.65;;;52.47;;
68074;SDS011;54864;52.002;5.468;2023-05-10T06:09:33;98.65;;;52.95;;
68074;SDS011;54864;52.002;5.468;2023-05-10T06:10:34;96.55;;;51.35;;
68074;SDS011;54864;52.002;5.468;2023-05-10T06:11:36;98.35;;;51.78;;
68074;SDS011;54864;52.002;5.468;2023-05-10T06:12:38;106.55;;;54.17;;
68074;SDS011;54864;52.002;5.468;2023-05-10T06:13:45;100.03;;;52.15;;
68074;SDS011;54864;52.002;5.468;2023-05-10T06:14:47;104.47;;;51.83;;
68074;SDS011;54864;52.002;5.468;2023-05-10T06:15:48;96.47;;;52.30;;